Strona główna
METAR-TAF:

METAR-TAF

Lotnisko :

Port lotniczy Piza

Piza, Włochy

Szerokość geograficzna: 43-41N, Długość geograficzna: 010-23E, wysokość: 2 m

Aktualna obserwacja pogody

Raport powstał 41 minut temu, godzina 04:45 UTC
Wiatr 3 kt od wschodnio-południowy wschód
Temperatura 5°C
Wilgotność 81%
Ciśnienie 1022 hPa
Widzialność 10 km lub więcej
Brak chmur poniżej 1500 m i brak chmur cumulonimbus

METAR: LIRP 090445Z 12003KT CAVOK 05/02 Q1022 NOSIG

czas: 07:26 (05:26 UTC)

Prognoza

Raport powstał 6 godziny i 26 minut temu, godzina 23:00 UTC
Prognoza ważna od 09 godzina 00 UTC do 09 godzina 24 UTC
Wiatr 5 kt od wschodnio-południowy wschód
Widzialność 10 km lub więcej
Brak chmur poniżej 1500 m i brak chmur cumulonimbus
Stopniowe zmiany
od 09 godzina 10 UTC do 09 godzina 12 UTC
Wiatr 10 kt od zachodnio-północny zachód
Stopniowe zmiany
od 09 godzina 19 UTC do 09 godzina 21 UTC
Wiatr 5 kt od wschodnio-południowy wschód

TAF: LIRP 082300Z 0900/0924 12005KT CAVOK BECMG 0910/0912 30010KT BECMG 0919/0921 12005KT

Obserwacja i prognoza pogody dla ponad 4000 lotnisk (raport METAR i TAF).

Dostępne stacje oznaczono żółtymi i czerwonymi punktami na mapie.

Najedź kursorem aby zobaczyć nazwę stacji.

Kliknij aby zobaczyć obserwacje i prognozy pogody.

Aby zmienić mapę: kliknij na zielony przycisk z czarnym krzyżykiem, aby powiększyć; na zielony przycisk z myślnikiem, aby pomniejszyć; na zielone strzałki, aby przejść do map sąsiednich.


METAR-TAF: